sensor_id;sensor_type;location;lat;lon;timestamp;P1;durP1;ratioP1;P2;durP2;ratioP2
32214;SDS011;18708;53.124;23.190;2023-04-03T00:01:58;2.25;;;1.30;;
32214;SDS011;18708;53.124;23.190;2023-04-03T00:04:24;2.80;;;1.58;;
32214;SDS011;18708;53.124;23.190;2023-04-03T00:06:50;1.88;;;1.33;;
32214;SDS011;18708;53.124;23.190;2023-04-03T00:09:16;4.78;;;1.70;;
32214;SDS011;18708;53.124;23.190;2023-04-03T00:11:42;2.78;;;1.38;;
32214;SDS011;18708;53.124;23.190;2023-04-03T00:14:07;2.97;;;1.63;;
32214;SDS011;18708;53.124;23.190;2023-04-03T00:16:33;2.20;;;1.42;;
32214;SDS011;18708;53.124;23.190;2023-04-03T00:18:59;2.40;;;1.50;;
32214;SDS011;18708;53.124;23.190;2023-04-03T00:21:25;3.42;;;1.60;;
32214;SDS011;18708;53.124;23.190;2023-04-03T00:23:51;5.13;;;1.83;;
32214;SDS011;18708;53.124;23.190;2023-04-03T00:26:16;2.22;;;1.45;;
32214;SDS011;18708;53.124;23.190;2023-04-03T00:28:42;3.28;;;1.63;;
32214;SDS011;18708;53.124;23.190;2023-04-03T00:31:08;3.22;;;1.33;;
32214;SDS011;18708;53.124;23.190;2023-04-03T00:33:33;2.92;;;1.50;;
32214;SDS011;18708;53.124;23.190;2023-04-03T00:35:59;2.72;;;1.35;;
32214;SDS011;18708;53.124;23.190;2023-04-03T00:38:30;1.75;;;1.35;;
32214;SDS011;18708;53.124;23.190;2023-04-03T00:40:56;1.55;;;1.20;;
32214;SDS011;18708;53.124;23.190;2023-04-03T00:43:25;2.58;;;1.38;;
32214;SDS011;18708;53.124;23.190;2023-04-03T00:45:52;2.67;;;1.45;;
32214;SDS011;18708;53.124;23.190;2023-04-03T00:48:24;2.50;;;1.58;;
32214;SDS011;18708;53.124;23.190;2023-04-03T00:50:54;1.55;;;1.45;;
32214;SDS011;18708;53.124;23.190;2023-04-03T00:53:28;2.65;;;1.23;;
32214;SDS011;18708;53.124;23.190;2023-04-03T00:56:08;1.70;;;1.38;;
32214;SDS011;18708;53.124;23.190;2023-04-03T00:58:40;1.45;;;1.30;;
32214;SDS011;18708;53.124;23.190;2023-04-03T01:01:23;1.60;;;1.50;;
32214;SDS011;18708;53.124;23.190;2023-04-03T01:03:51;2.35;;;1.27;;
32214;SDS011;18708;53.124;23.190;2023-04-03T01:06:17;2.75;;;1.40;;
32214;SDS011;18708;53.124;23.190;2023-04-03T01:08:48;2.03;;;1.60;;
32214;SDS011;18708;53.124;23.190;2023-04-03T01:11:15;2.03;;;1.42;;
32214;SDS011;18708;53.124;23.190;2023-04-03T01:13:41;2.67;;;1.40;;
32214;SDS011;18708;53.124;23.190;2023-04-03T01:16:07;2.25;;;1.58;;
32214;SDS011;18708;53.124;23.190;2023-04-03T01:18:33;3.05;;;1.45;;
32214;SDS011;18708;53.124;23.190;2023-04-03T01:26:48;2.72;;;1.33;;
32214;SDS011;18708;53.124;23.190;2023-04-03T01:29:15;3.38;;;1.70;;
32214;SDS011;18708;53.124;23.190;2023-04-03T01:31:44;3.80;;;1.80;;
32214;SDS011;18708;53.124;23.190;2023-04-03T01:34:18;1.77;;;1.10;;
32214;SDS011;18708;53.124;23.190;2023-04-03T01:36:44;3.17;;;1.70;;
32214;SDS011;18708;53.124;23.190;2023-04-03T01:39:10;2.55;;;1.40;;
32214;SDS011;18708;53.124;23.190;2023-04-03T01:41:36;2.60;;;1.42;;
32214;SDS011;18708;53.124;23.190;2023-04-03T01:44:02;2.17;;;1.42;;
32214;SDS011;18708;53.124;23.190;2023-04-03T01:46:28;2.40;;;1.88;;
32214;SDS011;18708;53.124;23.190;2023-04-03T01:48:54;1.83;;;1.40;;
32214;SDS011;18708;53.124;23.190;2023-04-03T01:51:20;3.08;;;1.70;;
32214;SDS011;18708;53.124;23.190;2023-04-03T01:53:46;3.72;;;1.70;;
32214;SDS011;18708;53.124;23.190;2023-04-03T01:56:11;1.35;;;1.25;;
32214;SDS011;18708;53.124;23.190;2023-04-03T01:58:37;2.67;;;1.30;;
32214;SDS011;18708;53.124;23.190;2023-04-03T02:01:03;1.52;;;1.42;;
32214;SDS011;18708;53.124;23.190;2023-04-03T02:03:29;1.70;;;1.58;;
32214;SDS011;18708;53.124;23.190;2023-04-03T02:05:54;1.92;;;1.42;;
32214;SDS011;18708;53.124;23.190;2023-04-03T02:08:21;1.80;;;1.40;;
32214;SDS011;18708;53.124;23.190;2023-04-03T02:10:47;2.80;;;1.50;;
32214;SDS011;18708;53.124;23.190;2023-04-03T02:13:14;3.42;;;1.65;;
32214;SDS011;18708;53.124;23.190;2023-04-03T02:15:40;1.90;;;1.52;;
32214;SDS011;18708;53.124;23.190;2023-04-03T02:18:06;2.55;;;1.60;;
32214;SDS011;18708;53.124;23.190;2023-04-03T02:20:32;1.52;;;1.40;;
32214;SDS011;18708;53.124;23.190;2023-04-03T02:22:58;3.33;;;1.90;;
32214;SDS011;18708;53.124;23.190;2023-04-03T02:25:24;2.08;;;1.48;;
32214;SDS011;18708;53.124;23.190;2023-04-03T02:27:50;2.63;;;1.60;;
32214;SDS011;18708;53.124;23.190;2023-04-03T02:30:15;2.60;;;1.63;;
32214;SDS011;18708;53.124;23.190;2023-04-03T02:32:42;2.08;;;1.65;;
32214;SDS011;18708;53.124;23.190;2023-04-03T02:35:08;1.67;;;1.38;;
32214;SDS011;18708;53.124;23.190;2023-04-03T02:37:34;3.25;;;1.77;;
32214;SDS011;18708;53.124;23.190;2023-04-03T02:40:00;8.00;;;1.67;;
32214;SDS011;18708;53.124;23.190;2023-04-03T02:42:26;3.83;;;1.73;;
32214;SDS011;18708;53.124;23.190;2023-04-03T02:44:52;2.08;;;1.67;;
32214;SDS011;18708;53.124;23.190;2023-04-03T02:47:17;2.67;;;1.77;;
32214;SDS011;18708;53.124;23.190;2023-04-03T02:49:43;1.65;;;1.55;;
32214;SDS011;18708;53.124;23.190;2023-04-03T02:52:10;3.00;;;1.60;;
32214;SDS011;18708;53.124;23.190;2023-04-03T02:54:37;3.40;;;1.70;;
32214;SDS011;18708;53.124;23.190;2023-04-03T02:57:05;1.67;;;1.30;;
32214;SDS011;18708;53.124;23.190;2023-04-03T02:59:33;2.67;;;1.50;;
32214;SDS011;18708;53.124;23.190;2023-04-03T03:02:00;3.92;;;1.80;;
32214;SDS011;18708;53.124;23.190;2023-04-03T03:04:26;3.03;;;1.50;;
32214;SDS011;18708;53.124;23.190;2023-04-03T03:06:51;3.67;;;1.73;;
32214;SDS011;18708;53.124;23.190;2023-04-03T03:09:17;3.97;;;2.00;;
32214;SDS011;18708;53.124;23.190;2023-04-03T03:11:43;3.45;;;2.13;;
32214;SDS011;18708;53.124;23.190;2023-04-03T03:14:09;2.55;;;1.60;;
32214;SDS011;18708;53.124;23.190;2023-04-03T03:16:35;3.28;;;1.52;;
32214;SDS011;18708;53.124;23.190;2023-04-03T03:19:00;2.58;;;1.67;;
32214;SDS011;18708;53.124;23.190;2023-04-03T03:21:26;4.32;;;1.90;;
32214;SDS011;18708;53.124;23.190;2023-04-03T03:23:52;2.45;;;1.63;;
32214;SDS011;18708;53.124;23.190;2023-04-03T03:26:18;2.60;;;1.63;;
32214;SDS011;18708;53.124;23.190;2023-04-03T03:28:43;4.68;;;1.85;;
32214;SDS011;18708;53.124;23.190;2023-04-03T03:31:09;2.63;;;1.85;;
32214;SDS011;18708;53.124;23.190;2023-04-03T03:33:35;3.75;;;1.85;;
32214;SDS011;18708;53.124;23.190;2023-04-03T03:36:01;1.95;;;1.70;;
32214;SDS011;18708;53.124;23.190;2023-04-03T03:38:27;3.22;;;1.70;;
32214;SDS011;18708;53.124;23.190;2023-04-03T03:40:52;3.15;;;1.92;;
32214;SDS011;18708;53.124;23.190;2023-04-03T03:43:18;3.25;;;1.67;;
32214;SDS011;18708;53.124;23.190;2023-04-03T03:45:45;3.10;;;2.03;;
32214;SDS011;18708;53.124;23.190;2023-04-03T03:48:16;2.88;;;1.67;;
32214;SDS011;18708;53.124;23.190;2023-04-03T03:50:41;5.45;;;4.18;;
32214;SDS011;18708;53.124;23.190;2023-04-03T03:53:07;3.13;;;2.35;;
32214;SDS011;18708;53.124;23.190;2023-04-03T03:55:32;3.40;;;2.35;;
32214;SDS011;18708;53.124;23.190;2023-04-03T03:57:58;4.28;;;2.72;;
32214;SDS011;18708;53.124;23.190;2023-04-03T04:00:26;4.35;;;2.03;;
32214;SDS011;18708;53.124;23.190;2023-04-03T04:02:52;2.95;;;1.83;;
32214;SDS011;18708;53.124;23.190;2023-04-03T04:05:18;2.58;;;1.70;;
32214;SDS011;18708;53.124;23.190;2023-04-03T04:07:44;3.40;;;1.83;;
32214;SDS011;18708;53.124;23.190;2023-04-03T04:10:10;3.42;;;1.90;;
32214;SDS011;18708;53.124;23.190;2023-04-03T04:12:36;4.03;;;2.15;;
32214;SDS011;18708;53.124;23.190;2023-04-03T04:15:02;2.85;;;1.80;;
32214;SDS011;18708;53.124;23.190;2023-04-03T04:17:28;7.03;;;2.17;;
32214;SDS011;18708;53.124;23.190;2023-04-03T04:19:54;4.53;;;2.13;;
32214;SDS011;18708;53.124;23.190;2023-04-03T04:22:19;6.55;;;2.53;;
32214;SDS011;18708;53.124;23.190;2023-04-03T04:24:45;5.50;;;2.38;;
32214;SDS011;18708;53.124;23.190;2023-04-03T04:27:11;2.50;;;1.90;;
32214;SDS011;18708;53.124;23.190;2023-04-03T04:29:36;3.55;;;2.10;;
32214;SDS011;18708;53.124;23.190;2023-04-03T04:32:03;3.38;;;2.15;;
32214;SDS011;18708;53.124;23.190;2023-04-03T04:34:29;8.48;;;2.30;;
32214;SDS011;18708;53.124;23.190;2023-04-03T04:36:55;3.75;;;2.55;;
32214;SDS011;18708;53.124;23.190;2023-04-03T04:39:21;4.70;;;2.50;;
32214;SDS011;18708;53.124;23.190;2023-04-03T04:41:46;4.07;;;2.38;;
32214;SDS011;18708;53.124;23.190;2023-04-03T04:44:12;6.63;;;2.50;;
32214;SDS011;18708;53.124;23.190;2023-04-03T04:46:38;5.00;;;2.55;;
32214;SDS011;18708;53.124;23.190;2023-04-03T04:49:03;3.03;;;2.53;;
32214;SDS011;18708;53.124;23.190;2023-04-03T04:51:29;3.28;;;2.30;;
32214;SDS011;18708;53.124;23.190;2023-04-03T04:53:55;4.05;;;2.50;;
32214;SDS011;18708;53.124;23.190;2023-04-03T04:56:20;4.35;;;2.47;;
32214;SDS011;18708;53.124;23.190;2023-04-03T04:58:46;6.10;;;2.28;;
32214;SDS011;18708;53.124;23.190;2023-04-03T05:01:12;3.72;;;2.25;;
32214;SDS011;18708;53.124;23.190;2023-04-03T05:03:38;4.28;;;2.20;;
32214;SDS011;18708;53.124;23.190;2023-04-03T05:06:04;5.60;;;2.55;;
32214;SDS011;18708;53.124;23.190;2023-04-03T05:08:30;3.92;;;2.13;;
32214;SDS011;18708;53.124;23.190;2023-04-03T05:10:56;6.65;;;2.50;;
32214;SDS011;18708;53.124;23.190;2023-04-03T05:13:21;4.47;;;2.28;;
32214;SDS011;18708;53.124;23.190;2023-04-03T05:15:47;3.00;;;2.15;;
32214;SDS011;18708;53.124;23.190;2023-04-03T05:18:13;3.40;;;2.05;;
32214;SDS011;18708;53.124;23.190;2023-04-03T05:20:39;4.10;;;2.10;;
32214;SDS011;18708;53.124;23.190;2023-04-03T05:23:08;3.83;;;2.30;;
32214;SDS011;18708;53.124;23.190;2023-04-03T05:25:36;3.70;;;2.20;;
32214;SDS011;18708;53.124;23.190;2023-04-03T05:28:03;6.25;;;2.42;;
32214;SDS011;18708;53.124;23.190;2023-04-03T05:30:31;5.47;;;2.10;;
32214;SDS011;18708;53.124;23.190;2023-04-03T05:32:57;4.85;;;2.17;;
32214;SDS011;18708;53.124;23.190;2023-04-03T05:35:23;3.05;;;2.00;;
32214;SDS011;18708;53.124;23.190;2023-04-03T05:37:49;3.15;;;2.00;;
32214;SDS011;18708;53.124;23.190;2023-04-03T05:40:15;6.13;;;2.33;;
32214;SDS011;18708;53.124;23.190;2023-04-03T05:42:41;5.72;;;2.45;;
32214;SDS011;18708;53.124;23.190;2023-04-03T05:45:06;7.28;;;2.85;;
32214;SDS011;18708;53.124;23.190;2023-04-03T05:47:32;3.20;;;2.33;;
32214;SDS011;18708;53.124;23.190;2023-04-03T05:49:58;3.70;;;2.33;;
32214;SDS011;18708;53.124;23.190;2023-04-03T05:52:28;6.25;;;2.30;;
32214;SDS011;18708;53.124;23.190;2023-04-03T05:54:55;4.57;;;2.53;;
32214;SDS011;18708;53.124;23.190;2023-04-03T05:57:22;5.43;;;2.25;;
32214;SDS011;18708;53.124;23.190;2023-04-03T05:59:48;4.47;;;2.15;;
32214;SDS011;18708;53.124;23.190;2023-04-03T06:02:15;5.63;;;2.70;;
32214;SDS011;18708;53.124;23.190;2023-04-03T06:04:42;5.43;;;3.03;;
32214;SDS011;18708;53.124;23.190;2023-04-03T06:07:11;4.97;;;3.33;;
32214;SDS011;18708;53.124;23.190;2023-04-03T06:09:40;2.88;;;2.20;;
32214;SDS011;18708;53.124;23.190;2023-04-03T06:12:07;3.72;;;2.38;;
32214;SDS011;18708;53.124;23.190;2023-04-03T06:14:33;4.68;;;2.00;;
32214;SDS011;18708;53.124;23.190;2023-04-03T06:16:59;2.97;;;1.88;;
32214;SDS011;18708;53.124;23.190;2023-04-03T06:19:25;5.45;;;2.40;;
32214;SDS011;18708;53.124;23.190;2023-04-03T06:21:51;3.92;;;2.50;;
32214;SDS011;18708;53.124;23.190;2023-04-03T06:24:17;5.30;;;2.05;;
32214;SDS011;18708;53.124;23.190;2023-04-03T06:26:44;4.53;;;2.00;;
32214;SDS011;18708;53.124;23.190;2023-04-03T06:29:10;3.78;;;1.90;;
32214;SDS011;18708;53.124;23.190;2023-04-03T06:31:36;3.83;;;1.48;;
32214;SDS011;18708;53.124;23.190;2023-04-03T06:34:02;3.75;;;2.35;;
32214;SDS011;18708;53.124;23.190;2023-04-03T06:36:28;5.88;;;2.28;;
32214;SDS011;18708;53.124;23.190;2023-04-03T06:38:54;2.88;;;2.10;;
32214;SDS011;18708;53.124;23.190;2023-04-03T06:41:21;6.97;;;2.88;;
32214;SDS011;18708;53.124;23.190;2023-04-03T06:43:48;4.30;;;2.20;;
32214;SDS011;18708;53.124;23.190;2023-04-03T06:46:15;4.22;;;1.70;;
32214;SDS011;18708;53.124;23.190;2023-04-03T06:48:45;4.20;;;2.00;;
32214;SDS011;18708;53.124;23.190;2023-04-03T06:51:21;4.80;;;2.17;;
32214;SDS011;18708;53.124;23.190;2023-04-03T06:53:49;6.60;;;3.67;;
32214;SDS011;18708;53.124;23.190;2023-04-03T06:56:16;4.15;;;2.13;;
32214;SDS011;18708;53.124;23.190;2023-04-03T06:58:42;20.00;;;7.07;;
32214;SDS011;18708;53.124;23.190;2023-04-03T07:01:09;12.60;;;6.25;;
32214;SDS011;18708;53.124;23.190;2023-04-03T07:03:37;4.28;;;2.13;;
32214;SDS011;18708;53.124;23.190;2023-04-03T07:06:04;2.90;;;1.60;;
32214;SDS011;18708;53.124;23.190;2023-04-03T07:08:31;3.63;;;2.00;;
32214;SDS011;18708;53.124;23.190;2023-04-03T07:10:57;6.75;;;2.33;;
32214;SDS011;18708;53.124;23.190;2023-04-03T07:13:22;3.88;;;2.35;;
32214;SDS011;18708;53.124;23.190;2023-04-03T07:15:48;4.05;;;2.17;;
32214;SDS011;18708;53.124;23.190;2023-04-03T07:18:14;3.10;;;2.08;;
32214;SDS011;18708;53.124;23.190;2023-04-03T07:20:39;5.95;;;2.78;;
32214;SDS011;18708;53.124;23.190;2023-04-03T07:23:05;4.00;;;2.30;;
32214;SDS011;18708;53.124;23.190;2023-04-03T07:25:31;4.53;;;2.22;;
32214;SDS011;18708;53.124;23.190;2023-04-03T07:27:57;4.30;;;1.83;;
32214;SDS011;18708;53.124;23.190;2023-04-03T07:30:23;3.67;;;1.80;;
32214;SDS011;18708;53.124;23.190;2023-04-03T07:32:49;2.97;;;1.40;;
32214;SDS011;18708;53.124;23.190;2023-04-03T07:35:14;4.25;;;2.50;;
32214;SDS011;18708;53.124;23.190;2023-04-03T07:37:41;4.55;;;2.10;;
32214;SDS011;18708;53.124;23.190;2023-04-03T07:40:07;2.10;;;1.70;;
32214;SDS011;18708;53.124;23.190;2023-04-03T07:42:34;2.42;;;1.60;;
32214;SDS011;18708;53.124;23.190;2023-04-03T07:45:01;1.90;;;1.60;;
32214;SDS011;18708;53.124;23.190;2023-04-03T07:47:28;3.10;;;1.65;;
32214;SDS011;18708;53.124;23.190;2023-04-03T07:49:53;2.53;;;1.70;;
32214;SDS011;18708;53.124;23.190;2023-04-03T07:52:19;2.85;;;1.60;;
32214;SDS011;18708;53.124;23.190;2023-04-03T07:54:45;6.65;;;2.22;;
32214;SDS011;18708;53.124;23.190;2023-04-03T07:57:10;2.60;;;1.40;;
32214;SDS011;18708;53.124;23.190;2023-04-03T07:59:36;4.30;;;1.33;;
32214;SDS011;18708;53.124;23.190;2023-04-03T08:02:02;4.30;;;1.40;;
32214;SDS011;18708;53.124;23.190;2023-04-03T08:04:29;2.92;;;1.52;;
32214;SDS011;18708;53.124;23.190;2023-04-03T08:06:55;2.55;;;1.73;;
32214;SDS011;18708;53.124;23.190;2023-04-03T08:09:21;2.05;;;1.35;;
32214;SDS011;18708;53.124;23.190;2023-04-03T08:11:47;3.35;;;1.63;;
32214;SDS011;18708;53.124;23.190;2023-04-03T08:14:13;1.98;;;1.50;;
32214;SDS011;18708;53.124;23.190;2023-04-03T08:16:44;1.13;;;1.05;;
32214;SDS011;18708;53.124;23.190;2023-04-03T08:19:10;1.90;;;1.38;;
32214;SDS011;18708;53.124;23.190;2023-04-03T08:21:39;1.33;;;0.95;;
32214;SDS011;18708;53.124;23.190;2023-04-03T08:24:06;5.32;;;1.42;;
32214;SDS011;18708;53.124;23.190;2023-04-03T08:26:32;3.55;;;1.30;;
32214;SDS011;18708;53.124;23.190;2023-04-03T08:28:58;3.75;;;1.33;;
32214;SDS011;18708;53.124;23.190;2023-04-03T08:31:24;1.35;;;1.15;;
32214;SDS011;18708;53.124;23.190;2023-04-03T08:33:49;1.75;;;1.20;;
32214;SDS011;18708;53.124;23.190;2023-04-03T08:36:16;1.67;;;1.15;;
32214;SDS011;18708;53.124;23.190;2023-04-03T08:38:47;5.18;;;1.30;;
32214;SDS011;18708;53.124;23.190;2023-04-03T08:41:15;3.30;;;1.10;;
32214;SDS011;18708;53.124;23.190;2023-04-03T08:46:13;5.32;;;2.38;;
32214;SDS011;18708;53.124;23.190;2023-04-03T08:48:41;2.60;;;1.73;;
32214;SDS011;18708;53.124;23.190;2023-04-03T08:51:12;1.30;;;0.90;;
32214;SDS011;18708;53.124;23.190;2023-04-03T08:53:46;2.30;;;1.17;;
32214;SDS011;18708;53.124;23.190;2023-04-03T08:56:28;2.08;;;1.10;;
32214;SDS011;18708;53.124;23.190;2023-04-03T08:58:56;2.45;;;1.17;;
32214;SDS011;18708;53.124;23.190;2023-04-03T09:04:01;3.47;;;1.33;;
32214;SDS011;18708;53.124;23.190;2023-04-03T09:06:31;3.33;;;1.10;;
32214;SDS011;18708;53.124;23.190;2023-04-03T09:14:19;2.08;;;1.23;;
32214;SDS011;18708;53.124;23.190;2023-04-03T09:16:54;2.53;;;1.20;;
32214;SDS011;18708;53.124;23.190;2023-04-03T09:21:57;1.50;;;1.30;;
32214;SDS011;18708;53.124;23.190;2023-04-03T09:24:47;1.38;;;1.23;;
32214;SDS011;18708;53.124;23.190;2023-04-03T09:27:21;1.90;;;1.35;;
32214;SDS011;18708;53.124;23.190;2023-04-03T09:29:47;1.10;;;1.00;;
32214;SDS011;18708;53.124;23.190;2023-04-03T09:32:18;1.45;;;1.27;;
32214;SDS011;18708;53.124;23.190;2023-04-03T09:34:53;5.20;;;1.63;;
32214;SDS011;18708;53.124;23.190;2023-04-03T09:40:29;3.30;;;1.33;;
32214;SDS011;18708;53.124;23.190;2023-04-03T09:42:57;2.25;;;1.40;;
32214;SDS011;18708;53.124;23.190;2023-04-03T09:45:32;2.90;;;1.10;;
32214;SDS011;18708;53.124;23.190;2023-04-03T09:48:06;1.95;;;1.42;;
32214;SDS011;18708;53.124;23.190;2023-04-03T09:51:00;1.08;;;1.02;;
32214;SDS011;18708;53.124;23.190;2023-04-03T09:53:38;2.80;;;1.40;;
32214;SDS011;18708;53.124;23.190;2023-04-03T09:59:06;2.15;;;1.23;;
32214;SDS011;18708;53.124;23.190;2023-04-03T10:01:41;2.55;;;1.30;;
32214;SDS011;18708;53.124;23.190;2023-04-03T10:04:22;1.40;;;1.30;;
32214;SDS011;18708;53.124;23.190;2023-04-03T10:06:51;1.05;;;1.00;;
32214;SDS011;18708;53.124;23.190;2023-04-03T10:12:04;1.42;;;1.00;;
32214;SDS011;18708;53.124;23.190;2023-04-03T10:14:53;1.80;;;1.10;;
32214;SDS011;18708;53.124;23.190;2023-04-03T10:19:51;2.75;;;1.55;;
32214;SDS011;18708;53.124;23.190;2023-04-03T10:23:12;1.55;;;1.10;;
32214;SDS011;18708;53.124;23.190;2023-04-03T10:42:05;1.77;;;1.10;;
32214;SDS011;18708;53.124;23.190;2023-04-03T10:47:34;1.90;;;1.27;;
32214;SDS011;18708;53.124;23.190;2023-04-03T10:53:01;1.30;;;0.90;;
32214;SDS011;18708;53.124;23.190;2023-04-03T10:58:03;1.75;;;1.35;;
32214;SDS011;18708;53.124;23.190;2023-04-03T11:00:39;3.47;;;1.40;;
32214;SDS011;18708;53.124;23.190;2023-04-03T11:03:30;1.52;;;1.10;;
32214;SDS011;18708;53.124;23.190;2023-04-03T11:06:01;1.65;;;1.15;;
32214;SDS011;18708;53.124;23.190;2023-04-03T11:08:48;12.07;;;1.27;;
32214;SDS011;18708;53.124;23.190;2023-04-03T11:11:35;1.42;;;1.27;;
32214;SDS011;18708;53.124;23.190;2023-04-03T11:22:43;1.63;;;1.30;;
32214;SDS011;18708;53.124;23.190;2023-04-03T11:25:23;1.73;;;1.33;;
32214;SDS011;18708;53.124;23.190;2023-04-03T11:30:39;1.10;;;1.00;;
32214;SDS011;18708;53.124;23.190;2023-04-03T11:38:56;1.75;;;1.38;;
32214;SDS011;18708;53.124;23.190;2023-04-03T11:41:28;1.67;;;1.10;;
32214;SDS011;18708;53.124;23.190;2023-04-03T11:44:00;4.57;;;2.08;;
32214;SDS011;18708;53.124;23.190;2023-04-03T12:05:52;1.50;;;1.30;;
32214;SDS011;18708;53.124;23.190;2023-04-03T12:16:20;2.38;;;1.52;;
32214;SDS011;18708;53.124;23.190;2023-04-03T12:19:04;3.60;;;1.98;;
32214;SDS011;18708;53.124;23.190;2023-04-03T12:27:25;1.98;;;1.65;;
32214;SDS011;18708;53.124;23.190;2023-04-03T12:30:16;1.70;;;1.50;;
32214;SDS011;18708;53.124;23.190;2023-04-03T12:35:34;3.33;;;1.40;;
32214;SDS011;18708;53.124;23.190;2023-04-03T12:46:42;2.22;;;1.40;;
32214;SDS011;18708;53.124;23.190;2023-04-03T12:51:45;3.92;;;1.60;;
32214;SDS011;18708;53.124;23.190;2023-04-03T12:54:16;2.60;;;1.00;;
32214;SDS011;18708;53.124;23.190;2023-04-03T12:56:46;2.50;;;1.25;;
32214;SDS011;18708;53.124;23.190;2023-04-03T12:59:19;2.67;;;1.08;;
32214;SDS011;18708;53.124;23.190;2023-04-03T13:01:57;2.13;;;1.40;;
32214;SDS011;18708;53.124;23.190;2023-04-03T13:04:26;2.20;;;1.45;;
32214;SDS011;18708;53.124;23.190;2023-04-03T13:06:53;3.63;;;1.20;;
32214;SDS011;18708;53.124;23.190;2023-04-03T13:11:56;3.90;;;1.75;;
32214;SDS011;18708;53.124;23.190;2023-04-03T13:14:26;2.17;;;1.77;;
32214;SDS011;18708;53.124;23.190;2023-04-03T13:19:20;1.98;;;1.40;;
32214;SDS011;18708;53.124;23.190;2023-04-03T13:21:48;3.33;;;1.75;;
32214;SDS011;18708;53.124;23.190;2023-04-03T13:24:18;3.45;;;2.00;;
32214;SDS011;18708;53.124;23.190;2023-04-03T13:26:44;2.85;;;1.60;;
32214;SDS011;18708;53.124;23.190;2023-04-03T13:29:24;2.55;;;1.40;;
32214;SDS011;18708;53.124;23.190;2023-04-03T13:31:59;3.80;;;1.77;;
32214;SDS011;18708;53.124;23.190;2023-04-03T13:34:35;5.75;;;3.30;;
32214;SDS011;18708;53.124;23.190;2023-04-03T13:37:06;3.78;;;1.85;;
32214;SDS011;18708;53.124;23.190;2023-04-03T13:39:39;2.60;;;1.50;;
32214;SDS011;18708;53.124;23.190;2023-04-03T13:42:22;2.60;;;1.60;;
32214;SDS011;18708;53.124;23.190;2023-04-03T13:47:39;1.65;;;1.30;;
32214;SDS011;18708;53.124;23.190;2023-04-03T13:50:20;1.48;;;1.38;;
32214;SDS011;18708;53.124;23.190;2023-04-03T13:52:49;3.85;;;2.28;;
32214;SDS011;18708;53.124;23.190;2023-04-03T13:55:52;4.32;;;2.47;;
32214;SDS011;18708;53.124;23.190;2023-04-03T13:58:23;3.78;;;1.92;;
32214;SDS011;18708;53.124;23.190;2023-04-03T14:03:32;1.70;;;1.60;;
32214;SDS011;18708;53.124;23.190;2023-04-03T14:06:05;3.03;;;1.92;;
32214;SDS011;18708;53.124;23.190;2023-04-03T14:08:33;5.43;;;2.80;;
32214;SDS011;18708;53.124;23.190;2023-04-03T14:10:59;6.20;;;2.20;;
32214;SDS011;18708;53.124;23.190;2023-04-03T14:13:25;3.13;;;1.95;;
32214;SDS011;18708;53.124;23.190;2023-04-03T14:15:51;3.30;;;2.05;;
32214;SDS011;18708;53.124;23.190;2023-04-03T14:18:17;3.03;;;2.38;;
32214;SDS011;18708;53.124;23.190;2023-04-03T14:20:45;5.38;;;3.08;;
32214;SDS011;18708;53.124;23.190;2023-04-03T14:23:12;2.88;;;1.95;;
32214;SDS011;18708;53.124;23.190;2023-04-03T14:25:38;6.68;;;3.30;;
32214;SDS011;18708;53.124;23.190;2023-04-03T14:28:21;4.88;;;2.70;;
32214;SDS011;18708;53.124;23.190;2023-04-03T14:30:48;5.32;;;3.85;;
32214;SDS011;18708;53.124;23.190;2023-04-03T14:33:16;21.88;;;14.93;;
32214;SDS011;18708;53.124;23.190;2023-04-03T14:35:45;21.15;;;15.63;;
32214;SDS011;18708;53.124;23.190;2023-04-03T14:38:24;5.15;;;3.08;;
32214;SDS011;18708;53.124;23.190;2023-04-03T14:40:52;3.33;;;1.90;;
32214;SDS011;18708;53.124;23.190;2023-04-03T14:43:19;3.58;;;2.00;;
32214;SDS011;18708;53.124;23.190;2023-04-03T14:45:45;3.80;;;2.20;;
32214;SDS011;18708;53.124;23.190;2023-04-03T14:48:17;2.70;;;2.00;;
32214;SDS011;18708;53.124;23.190;2023-04-03T14:50:46;2.85;;;2.53;;
32214;SDS011;18708;53.124;23.190;2023-04-03T14:53:13;2.05;;;1.80;;
32214;SDS011;18708;53.124;23.190;2023-04-03T14:55:40;2.33;;;1.90;;
32214;SDS011;18708;53.124;23.190;2023-04-03T14:58:10;3.95;;;2.38;;
32214;SDS011;18708;53.124;23.190;2023-04-03T15:00:42;4.20;;;2.20;;
32214;SDS011;18708;53.124;23.190;2023-04-03T15:03:19;4.00;;;2.65;;
32214;SDS011;18708;53.124;23.190;2023-04-03T15:05:47;12.05;;;6.40;;
32214;SDS011;18708;53.124;23.190;2023-04-03T15:08:23;5.68;;;4.15;;
32214;SDS011;18708;53.124;23.190;2023-04-03T15:10:51;9.88;;;5.00;;
32214;SDS011;18708;53.124;23.190;2023-04-03T15:13:17;7.15;;;3.28;;
32214;SDS011;18708;53.124;23.190;2023-04-03T15:15:44;11.00;;;5.43;;
32214;SDS011;18708;53.124;23.190;2023-04-03T15:18:15;5.88;;;3.63;;
32214;SDS011;18708;53.124;23.190;2023-04-03T15:20:44;4.38;;;3.22;;
32214;SDS011;18708;53.124;23.190;2023-04-03T15:23:11;7.45;;;5.30;;
32214;SDS011;18708;53.124;23.190;2023-04-03T15:25:42;9.02;;;4.55;;
32214;SDS011;18708;53.124;23.190;2023-04-03T15:28:10;6.95;;;3.65;;
32214;SDS011;18708;53.124;23.190;2023-04-03T15:30:47;9.50;;;6.78;;
32214;SDS011;18708;53.124;23.190;2023-04-03T15:33:13;11.20;;;5.78;;
32214;SDS011;18708;53.124;23.190;2023-04-03T15:35:40;5.78;;;3.42;;
32214;SDS011;18708;53.124;23.190;2023-04-03T15:38:06;8.40;;;3.70;;
32214;SDS011;18708;53.124;23.190;2023-04-03T15:40:32;4.90;;;2.33;;
32214;SDS011;18708;53.124;23.190;2023-04-03T15:42:57;3.40;;;2.30;;
32214;SDS011;18708;53.124;23.190;2023-04-03T15:45:23;11.23;;;6.45;;
32214;SDS011;18708;53.124;23.190;2023-04-03T15:47:49;4.72;;;3.30;;
32214;SDS011;18708;53.124;23.190;2023-04-03T15:50:15;14.98;;;8.60;;
32214;SDS011;18708;53.124;23.190;2023-04-03T15:52:41;12.75;;;7.05;;
32214;SDS011;18708;53.124;23.190;2023-04-03T15:55:08;8.05;;;4.75;;
32214;SDS011;18708;53.124;23.190;2023-04-03T15:57:34;8.77;;;5.78;;
32214;SDS011;18708;53.124;23.190;2023-04-03T15:59:59;8.77;;;4.18;;
32214;SDS011;18708;53.124;23.190;2023-04-03T16:02:25;12.48;;;5.80;;
32214;SDS011;18708;53.124;23.190;2023-04-03T16:04:53;5.47;;;3.55;;
32214;SDS011;18708;53.124;23.190;2023-04-03T16:07:19;4.53;;;3.20;;
32214;SDS011;18708;53.124;23.190;2023-04-03T16:09:45;12.57;;;5.22;;
32214;SDS011;18708;53.124;23.190;2023-04-03T16:12:11;7.68;;;4.53;;
32214;SDS011;18708;53.124;23.190;2023-04-03T16:14:37;10.13;;;4.65;;
32214;SDS011;18708;53.124;23.190;2023-04-03T16:17:02;28.50;;;9.65;;
32214;SDS011;18708;53.124;23.190;2023-04-03T16:19:28;20.63;;;8.05;;
32214;SDS011;18708;53.124;23.190;2023-04-03T16:21:55;21.15;;;7.55;;
32214;SDS011;18708;53.124;23.190;2023-04-03T16:24:21;21.35;;;8.13;;
32214;SDS011;18708;53.124;23.190;2023-04-03T16:26:47;20.73;;;9.98;;
32214;SDS011;18708;53.124;23.190;2023-04-03T16:29:12;9.93;;;4.10;;
32214;SDS011;18708;53.124;23.190;2023-04-03T16:31:38;11.70;;;6.03;;
32214;SDS011;18708;53.124;23.190;2023-04-03T16:34:04;15.52;;;7.15;;
32214;SDS011;18708;53.124;23.190;2023-04-03T16:36:30;19.42;;;7.43;;
32214;SDS011;18708;53.124;23.190;2023-04-03T16:38:55;26.23;;;15.70;;
32214;SDS011;18708;53.124;23.190;2023-04-03T16:41:21;14.30;;;6.63;;
32214;SDS011;18708;53.124;23.190;2023-04-03T16:43:47;14.25;;;5.72;;
32214;SDS011;18708;53.124;23.190;2023-04-03T16:46:12;23.42;;;12.20;;
32214;SDS011;18708;53.124;23.190;2023-04-03T16:48:38;16.02;;;7.32;;
32214;SDS011;18708;53.124;23.190;2023-04-03T16:51:04;74.40;;;54.60;;